Time;durP1;ratioP1;P1;durP2;ratioP2;P2;SDS_P1;SDS_P2;PMS_P1;PMS_P2;Temp;Humidity;BMP_temperature;BMP_pressure;BME280_temperature;BME280_humidity;BME280_pressure;Samples;Min_cycle;Max_cycle;Signal;HPM_P1;HPM_P2
2023/04/04 00:00:31;;;;;;;0.22;0.22;;;-2.60;99.90;;;;;;5058921;28;20052;-78
2023/04/04 00:02:56;;;;;;;0.20;0.20;;;-2.60;99.90;;;;;;5058983;28;20095;-79
2023/04/04 00:05:22;;;;;;;0.30;0.30;;;-2.60;99.90;;;;;;5058293;28;20029;-77
2023/04/04 00:07:48;;;;;;;0.20;0.20;;;-2.70;99.90;;;;;;5057945;28;20483;-78
2023/04/04 00:10:14;;;;;;;0.20;0.20;;;-2.70;99.90;;;;;;5058751;28;20028;-78
2023/04/04 00:12:40;;;;;;;0.30;0.30;;;-2.80;99.90;;;;;;5041246;28;20368;-78
2023/04/04 00:15:06;;;;;;;0.30;0.30;;;-2.80;99.90;;;;;;5058730;28;20032;-78
2023/04/04 00:17:31;;;;;;;0.20;0.20;;;-2.90;99.90;;;;;;5058394;28;20500;-77
2023/04/04 00:19:57;;;;;;;0.25;0.25;;;-2.90;99.90;;;;;;5057144;28;20053;-79
2023/04/04 00:22:23;;;;;;;0.22;0.22;;;-2.90;99.90;;;;;;5040207;28;20104;-77
2023/04/04 00:24:48;;;;;;;0.20;0.20;;;-2.90;99.90;;;;;;5057887;28;20112;-79
2023/04/04 00:27:15;;;;;;;0.30;0.30;;;-2.90;99.90;;;;;;5057511;28;20021;-78
2023/04/04 00:29:40;;;;;;;0.30;0.30;;;-3.00;99.90;;;;;;5057339;28;20394;-78
2023/04/04 00:32:06;;;;;;;0.20;0.20;;;-3.00;99.90;;;;;;5056968;28;20025;-77
2023/04/04 00:34:31;;;;;;;0.20;0.20;;;-3.10;99.90;;;;;;5056809;28;20017;-77
2023/04/04 00:36:57;;;;;;;0.20;0.20;;;-3.20;99.90;;;;;;5056493;28;20040;-78
2023/04/04 00:39:25;;;;;;;0.20;0.20;;;-3.20;99.90;;;;;;5069124;22;20057;-79
2023/04/04 00:41:51;;;;;;;0.30;0.30;;;-3.20;99.90;;;;;;5043578;28;20013;-77
2023/04/04 00:44:19;;;;;;;0.20;0.20;;;-3.20;99.90;;;;;;5056390;28;20023;-79
2023/04/04 00:47:08;;;;;;;0.20;0.20;;;-3.30;99.90;;;;;;5038340;28;20044;-77
2023/04/04 00:49:45;;;;;;;0.30;0.30;;;-3.20;99.90;;;;;;5055385;28;20037;-77
2023/04/04 00:52:20;;;;;;;0.30;0.30;;;-3.40;99.90;;;;;;5055921;28;20083;-77
2023/04/04 00:54:49;;;;;;;0.20;0.20;;;-3.40;99.90;;;;;;5056522;28;20135;-77
2023/04/04 00:57:34;;;;;;;0.20;0.20;;;-3.30;99.90;;;;;;5056016;28;20017;-77
2023/04/04 01:00:17;;;;;;;0.20;0.20;;;-3.30;99.90;;;;;;5056539;28;20020;-77
2023/04/04 01:02:43;;;;;;;;;;;-3.30;99.90;;;;;;5037878;28;20017;-78
2023/04/04 01:05:11;;;;;;;0.20;0.20;;;-3.30;99.90;;;;;;5038166;28;19959;-78
2023/04/04 01:07:37;;;;;;;0.30;0.30;;;-3.30;99.90;;;;;;5055540;28;20091;-77
2023/04/04 01:10:03;;;;;;;0.20;0.20;;;-3.30;99.90;;;;;;5055442;28;20029;-77
2023/04/04 01:12:29;;;;;;;0.30;0.30;;;-3.30;99.90;;;;;;5037404;28;20017;-78
2023/04/04 01:14:56;;;;;;;0.30;0.30;;;-3.40;99.90;;;;;;5055118;28;20021;-77
2023/04/04 01:17:25;;;;;;;0.20;0.20;;;-3.40;99.90;;;;;;5055863;28;20078;-77
2023/04/04 01:20:09;;;;;;;0.30;0.30;;;-3.50;99.90;;;;;;5036952;28;20089;-77
2023/04/04 01:22:37;;;;;;;0.20;0.20;;;-3.50;99.90;;;;;;5037631;28;20479;-78
2023/04/04 01:25:05;;;;;;;0.30;0.30;;;-3.40;99.90;;;;;;5055460;28;20029;-77
2023/04/04 01:27:31;;;;;;;0.20;0.20;;;-3.40;99.90;;;;;;5055582;28;20017;-78
2023/04/04 01:29:56;;;;;;;0.20;0.20;;;-3.30;99.90;;;;;;5058254;22;20045;-77
2023/04/04 01:32:34;;;;;;;0.20;0.20;;;-3.30;99.90;;;;;;5035561;28;20022;-77
2023/04/04 01:35:12;;;;;;;0.20;0.20;;;-3.30;99.90;;;;;;5044788;28;20067;-77
2023/04/04 01:37:47;;;;;;;0.30;0.30;;;-3.30;99.90;;;;;;5054571;28;20406;-77
2023/04/04 01:40:36;;;;;;;0.30;0.30;;;-3.30;99.90;;;;;;5054764;28;20021;-77
2023/04/04 01:43:05;;;;;;;0.25;0.25;;;-3.20;99.90;;;;;;5054667;28;20017;-78
2023/04/04 01:45:31;;;;;;;0.30;0.30;;;-3.20;99.90;;;;;;5055387;28;20409;-77
2023/04/04 01:48:00;;;;;;;0.20;0.20;;;-3.10;99.90;;;;;;5071306;28;20032;-78
2023/04/04 01:50:26;;;;;;;0.28;0.28;;;-3.10;99.90;;;;;;5055793;28;20033;-77
2023/04/04 01:52:51;;;;;;;0.20;0.20;;;-3.20;99.90;;;;;;5054494;28;20029;-78
2023/04/04 01:55:20;;;;;;;0.30;0.30;;;-3.20;99.90;;;;;;5070487;28;20036;-77
2023/04/04 01:57:46;;;;;;;0.25;0.25;;;-3.20;99.90;;;;;;5071122;28;20056;-77
2023/04/04 02:00:12;;;;;;;0.20;0.20;;;-3.30;99.90;;;;;;5055717;28;20041;-77
2023/04/04 02:02:38;;;;;;;0.30;0.30;;;-3.30;99.90;;;;;;5074881;28;20501;-78
2023/04/04 02:05:04;;;;;;;0.30;0.30;;;-3.30;99.90;;;;;;5060007;28;20049;-79
2023/04/04 02:07:29;;;;;;;0.22;0.22;;;-3.40;99.90;;;;;;5060425;28;20483;-78
2023/04/04 02:10:13;;;;;;;0.30;0.30;;;-3.40;99.90;;;;;;5055275;22;20529;-78
2023/04/04 02:12:59;;;;;;;0.25;0.25;;;-3.40;99.90;;;;;;5039700;28;20064;-77
2023/04/04 02:15:25;;;;;;;0.20;0.20;;;-3.50;99.90;;;;;;5039961;28;20045;-78
2023/04/04 02:17:57;;;;;;;0.20;0.20;;;-3.50;99.90;;;;;;5022129;28;20131;-77
2023/04/04 02:20:25;;;;;;;0.30;0.30;;;-3.50;99.90;;;;;;5034452;28;20032;-78
2023/04/04 02:22:55;;;;;;;0.28;0.28;;;-3.40;99.90;;;;;;5019611;28;20041;-77
2023/04/04 02:25:22;;;;;;;0.20;0.20;;;-3.50;99.90;;;;;;5019399;28;20380;-77
2023/04/04 02:27:48;;;;;;;0.20;0.20;;;-3.50;99.90;;;;;;5018567;28;20021;-77
2023/04/04 02:30:13;;;;;;;0.20;0.20;;;-3.50;99.90;;;;;;5018824;28;20553;-78
2023/04/04 02:32:39;;;;;;;0.20;0.20;;;-3.50;99.90;;;;;;5017600;28;20399;-77
2023/04/04 02:35:05;;;;;;;0.20;0.20;;;-3.50;99.90;;;;;;5016938;28;20030;-77
2023/04/04 02:37:30;;;;;;;0.30;0.30;;;-3.60;99.90;;;;;;5017788;28;20034;-78
2023/04/04 02:39:56;;;;;;;0.10;0.10;;;-3.50;99.90;;;;;;5020151;28;20033;-77
2023/04/04 02:42:27;;;;;;;0.30;0.30;;;-3.60;99.90;;;;;;5019864;28;20514;-77
2023/04/04 02:44:58;;;;;;;0.20;0.20;;;-3.50;99.90;;;;;;5018779;28;20044;-77
2023/04/04 02:47:24;;;;;;;0.20;0.20;;;-3.50;99.90;;;;;;5018639;28;20443;-78
2023/04/04 02:49:49;;;;;;;0.30;0.30;;;-3.40;99.90;;;;;;5002840;28;20022;-77
2023/04/04 02:52:15;;;;;;;0.20;0.20;;;-3.40;99.90;;;;;;5002566;28;20022;-79
2023/04/04 02:54:40;;;;;;;0.30;0.30;;;-3.30;99.90;;;;;;5019564;28;20026;-78
2023/04/04 02:57:09;;;;;;;0.28;0.28;;;-3.30;99.90;;;;;;5001303;28;20022;-77
2023/04/04 02:59:34;;;;;;;0.30;0.30;;;-3.20;99.90;;;;;;5019812;28;20033;-77
2023/04/04 03:02:00;;;;;;;0.30;0.30;;;-3.20;99.90;;;;;;5019581;28;20026;-78
2023/04/04 03:04:28;;;;;;;0.20;0.20;;;-3.20;99.90;;;;;;5019527;28;20395;-79
2023/04/04 03:06:54;;;;;;;0.20;0.20;;;-3.10;99.90;;;;;;5001402;28;20072;-79
2023/04/04 03:09:21;;;;;;;0.30;0.30;;;-3.10;99.90;;;;;;5019288;28;20041;-77
2023/04/04 03:11:48;;;;;;;0.30;0.30;;;-3.00;99.90;;;;;;5019568;28;20117;-79
2023/04/04 03:14:14;;;;;;;0.20;0.20;;;-3.00;99.90;;;;;;5017542;28;20072;-78
2023/04/04 03:16:39;;;;;;;0.20;0.20;;;-3.00;99.90;;;;;;5018908;28;20068;-78
2023/04/04 03:19:08;;;;;;;0.20;0.20;;;-3.00;99.90;;;;;;5168030;22;20049;-78
2023/04/04 03:21:33;;;;;;;0.20;0.20;;;-3.00;99.90;;;;;;5058443;28;20046;-77
2023/04/04 03:23:59;;;;;;;0.20;0.20;;;-3.00;99.90;;;;;;5058542;28;20437;-77
2023/04/04 03:26:27;;;;;;;0.20;0.20;;;-3.00;99.90;;;;;;5058798;28;20099;-78
2023/04/04 03:28:55;;;;;;;0.20;0.20;;;-3.00;99.90;;;;;;5057489;28;20028;-77
2023/04/04 03:31:26;;;;;;;0.20;0.20;;;-3.10;99.90;;;;;;5057708;28;20103;-78
2023/04/04 03:33:54;;;;;;;0.30;0.30;;;-3.10;99.90;;;;;;5057876;28;20028;-78
2023/04/04 03:36:21;;;;;;;0.20;0.20;;;-3.10;99.90;;;;;;5057229;28;20078;-78
2023/04/04 03:38:47;;;;;;;0.30;0.30;;;-3.10;99.90;;;;;;5057822;28;20070;-79
2023/04/04 03:41:12;;;;;;;0.20;0.20;;;-3.20;99.90;;;;;;5058139;28;20033;-79
2023/04/04 03:43:38;;;;;;;0.20;0.20;;;-3.10;99.90;;;;;;5058879;28;20458;-78
2023/04/04 03:46:04;;;;;;;0.25;0.25;;;-3.10;99.90;;;;;;5058461;28;20029;-78
2023/04/04 03:48:30;;;;;;;0.20;0.20;;;-3.20;99.90;;;;;;5057010;28;20029;-78
2023/04/04 03:50:57;;;;;;;0.20;0.20;;;-3.20;99.90;;;;;;5058972;28;20013;-77
2023/04/04 03:53:26;;;;;;;0.20;0.20;;;-3.20;99.90;;;;;;5057739;28;20032;-77
2023/04/04 03:56:03;;;;;;;0.20;0.20;;;-3.20;99.90;;;;;;5058950;28;20025;-77
2023/04/04 03:58:29;;;;;;;0.20;0.20;;;-3.20;99.90;;;;;;5058352;28;20445;-77
2023/04/04 04:00:54;;;;;;;0.20;0.20;;;-3.30;99.90;;;;;;5055876;28;20028;-78
2023/04/04 04:03:20;;;;;;;0.20;0.20;;;-3.30;99.90;;;;;;5059404;28;20025;-79
2023/04/04 04:05:46;;;;;;;0.30;0.30;;;-3.20;99.90;;;;;;5058523;28;20380;-78
2023/04/04 04:10:47;;;;;;;0.20;0.20;;;-3.20;99.90;;;;;;5036498;28;20119;-78
2023/04/04 04:13:12;;;;;;;0.20;0.20;;;-3.30;99.90;;;;;;5038259;28;20471;-78
2023/04/04 04:15:38;;;;;;;0.30;0.30;;;-3.30;99.90;;;;;;5037333;28;20029;-78
2023/04/04 04:18:04;;;;;;;0.30;0.30;;;-3.40;99.90;;;;;;5038004;28;20026;-78
2023/04/04 04:20:32;;;;;;;0.30;0.30;;;-3.40;99.90;;;;;;5037849;28;20026;-77
2023/04/04 04:22:58;;;;;;;0.30;0.30;;;-3.50;99.90;;;;;;5037579;28;20455;-77
2023/04/04 04:25:23;;;;;;;0.20;0.20;;;-3.50;99.90;;;;;;5036375;28;20053;-78
2023/04/04 04:27:49;;;;;;;0.30;0.30;;;-3.60;99.90;;;;;;5037968;28;20017;-78
2023/04/04 04:30:15;;;;;;;0.30;0.30;;;-3.70;99.90;;;;;;5038234;28;20025;-78
2023/04/04 04:32:43;;;;;;;0.30;0.30;;;-3.70;99.90;;;;;;5036705;28;20052;-78
2023/04/04 04:35:09;;;;;;;0.30;0.30;;;-3.80;99.90;;;;;;5038384;28;20026;-77
2023/04/04 04:37:35;;;;;;;0.22;0.22;;;-3.80;99.90;;;;;;5037272;28;20025;-78
2023/04/04 04:40:01;;;;;;;0.20;0.20;;;-3.90;99.90;;;;;;5037695;28;20498;-78
2023/04/04 04:42:28;;;;;;;0.30;0.30;;;-3.90;99.90;;;;;;5037348;28;20072;-77
2023/04/04 04:44:53;;;;;;;0.30;0.30;;;-3.90;99.90;;;;;;5036630;28;20049;-77
2023/04/04 04:47:19;;;;;;;0.30;0.30;;;-3.90;99.90;;;;;;5037024;28;20018;-78
2023/04/04 04:49:48;;;;;;;0.20;0.20;;;-4.00;99.90;;;;;;5036248;28;20025;-78
2023/04/04 04:52:13;;;;;;;0.30;0.30;;;-4.00;99.90;;;;;;5036580;28;20478;-77
2023/04/04 04:54:39;;;;;;;0.30;0.30;;;-4.00;99.90;;;;;;5037370;28;20047;-77
2023/04/04 04:57:19;;;;;;;0.30;0.30;;;-3.90;99.90;;;;;;5037111;28;20029;-77
2023/04/04 04:59:45;;;;;;;0.20;0.20;;;-3.70;99.90;;;;;;5066459;23;20044;-77
2023/04/04 05:02:10;;;;;;;0.30;0.30;;;-3.80;99.90;;;;;;5039591;28;20025;-78
2023/04/04 05:04:36;;;;;;;0.30;0.30;;;-3.80;99.90;;;;;;5057578;28;20367;-77
2023/04/04 05:07:01;;;;;;;0.30;0.30;;;-3.70;99.90;;;;;;5057667;28;20056;-78
2023/04/04 05:09:27;;;;;;;0.22;0.22;;;-3.70;99.90;;;;;;5039661;28;20017;-78
2023/04/04 05:11:53;;;;;;;0.20;0.20;;;-3.60;99.90;;;;;;5057731;28;20398;-77
2023/04/04 05:14:19;;;;;;;0.20;0.20;;;-3.60;99.90;;;;;;5039874;28;20120;-77
2023/04/04 05:16:44;;;;;;;0.30;0.30;;;-3.50;99.90;;;;;;5057965;28;20081;-77
2023/04/04 05:19:12;;;;;;;0.20;0.20;;;-3.50;99.90;;;;;;5089717;22;20049;-78
2023/04/04 05:21:38;;;;;;;0.20;0.20;;;-3.30;99.90;;;;;;5039205;28;20021;-78
2023/04/04 05:24:04;;;;;;;0.20;0.20;;;-3.30;99.90;;;;;;5039481;28;20036;-77
2023/04/04 05:26:30;;;;;;;0.20;0.20;;;-3.20;99.90;;;;;;5058235;28;20044;-77
2023/04/04 05:28:55;;;;;;;0.20;0.20;;;-3.10;99.90;;;;;;5057884;28;20048;-77
2023/04/04 05:31:21;;;;;;;0.20;0.20;;;-3.10;99.90;;;;;;5056643;28;20021;-77
2023/04/04 05:33:46;;;;;;;0.20;0.20;;;-3.00;99.90;;;;;;5040130;28;20398;-77
2023/04/04 05:36:12;;;;;;;0.20;0.20;;;-3.00;99.90;;;;;;5039423;28;20071;-77
2023/04/04 05:38:38;;;;;;;0.28;0.28;;;-3.00;99.90;;;;;;5039569;28;20025;-79
2023/04/04 05:41:03;;;;;;;0.10;0.10;;;-2.90;99.90;;;;;;5057217;28;20025;-77
2023/04/04 05:43:29;;;;;;;0.20;0.20;;;-2.90;99.90;;;;;;5057845;28;20029;-78
2023/04/04 05:45:54;;;;;;;0.22;0.22;;;-2.80;99.90;;;;;;5057240;28;20036;-78
2023/04/04 05:48:20;;;;;;;0.25;0.25;;;-2.70;99.90;;;;;;5057848;28;20395;-77
2023/04/04 05:50:46;;;;;;;0.20;0.20;;;-2.70;99.90;;;;;;5058185;28;20031;-78
2023/04/04 05:53:11;;;;;;;0.30;0.30;;;-2.60;99.90;;;;;;5057922;28;20394;-78
2023/04/04 05:55:37;;;;;;;0.22;0.22;;;-2.50;99.90;;;;;;5039948;28;20441;-78
2023/04/04 05:58:02;;;;;;;0.20;0.20;;;-2.40;99.90;;;;;;5058016;28;20045;-78
2023/04/04 06:00:28;;;;;;;0.30;0.30;;;-2.30;99.90;;;;;;5057128;28;20033;-77
2023/04/04 06:02:57;;;;;;;0.10;0.10;;;-2.20;99.90;;;;;;5068433;23;20121;-78
2023/04/04 06:05:26;;;;;;;0.30;0.30;;;-2.00;99.90;;;;;;5044858;28;20552;-78
2023/04/04 06:07:57;;;;;;;0.20;0.20;;;-1.90;99.90;;;;;;5062741;28;20063;-78
2023/04/04 06:10:23;;;;;;;0.20;0.20;;;-1.70;99.90;;;;;;5063189;28;20077;-78
2023/04/04 06:12:48;;;;;;;0.20;0.20;;;-1.50;99.90;;;;;;5044934;28;20040;-78
2023/04/04 06:15:14;;;;;;;0.20;0.20;;;-1.40;99.90;;;;;;5063402;28;20061;-78
2023/04/04 06:17:40;;;;;;;0.20;0.20;;;-1.30;99.90;;;;;;5042222;28;20117;-78
2023/04/04 06:20:07;;;;;;;0.20;0.20;;;-1.20;99.90;;;;;;5043177;28;20029;-78
2023/04/04 06:22:33;;;;;;;0.20;0.20;;;-1.00;99.90;;;;;;5042998;28;20025;-78
2023/04/04 06:24:59;;;;;;;0.22;0.22;;;-0.90;99.90;;;;;;5041966;28;20022;-78
2023/04/04 06:27:28;;;;;;;0.20;0.20;;;-0.70;99.90;;;;;;5041893;28;20032;-78
2023/04/04 06:29:53;;;;;;;0.20;0.20;;;-0.50;99.90;;;;;;5042284;28;20052;-78
2023/04/04 06:32:21;;;;;;;0.20;0.20;;;-0.30;99.90;;;;;;5037688;28;20017;-77
2023/04/04 06:34:46;;;;;;;0.25;0.25;;;-0.10;99.90;;;;;;5061708;28;20102;-77
2023/04/04 06:37:12;;;;;;;0.22;0.22;;;0.10;99.90;;;;;;5067794;28;20021;-79
2023/04/04 06:39:43;;;;;;;0.20;0.20;;;0.30;99.90;;;;;;5065689;28;20021;-78
2023/04/04 06:42:08;;;;;;;0.30;0.30;;;0.50;99.90;;;;;;5052016;28;20093;-77
2023/04/04 06:44:34;;;;;;;0.20;0.20;;;0.60;99.90;;;;;;5050618;28;20379;-78
2023/04/04 06:46:59;;;;;;;0.30;0.30;;;0.80;99.90;;;;;;5066792;28;20025;-78
2023/04/04 06:49:25;;;;;;;0.28;0.28;;;0.90;99.90;;;;;;5040424;28;20494;-77
2023/04/04 06:51:51;;;;;;;0.22;0.22;;;1.20;99.90;;;;;;5065380;28;20029;-78
2023/04/04 06:54:17;;;;;;;0.28;0.28;;;1.40;99.90;;;;;;5068569;28;20032;-79
2023/04/04 06:56:42;;;;;;;0.20;0.20;;;1.60;99.90;;;;;;5068713;28;20053;-79
2023/04/04 06:59:10;;;;;;;0.20;0.20;;;1.80;99.90;;;;;;5048443;28;20025;-78
2023/04/04 07:01:36;;;;;;;0.20;0.20;;;2.10;99.90;;;;;;5063971;28;20031;-77
2023/04/04 07:04:02;;;;;;;0.25;0.25;;;2.20;99.90;;;;;;5064787;28;20104;-77
2023/04/04 07:06:33;;;;;;;0.20;0.20;;;2.50;99.90;;;;;;5064250;28;20116;-79
2023/04/04 07:08:59;;;;;;;0.30;0.30;;;2.60;99.90;;;;;;5066417;28;20032;-78
2023/04/04 07:11:24;;;;;;;0.20;0.20;;;2.90;99.90;;;;;;5064924;28;20028;-78
2023/04/04 07:13:50;;;;;;;0.22;0.22;;;3.00;99.90;;;;;;5065139;28;20487;-79
2023/04/04 07:16:16;;;;;;;0.20;0.20;;;3.10;99.90;;;;;;5066608;28;20025;-78
2023/04/04 07:18:43;;;;;;;0.20;0.20;;;3.30;99.90;;;;;;5048489;28;20047;-78
2023/04/04 07:21:08;;;;;;;0.20;0.20;;;3.50;99.90;;;;;;5070196;28;20077;-78
2023/04/04 07:23:34;;;;;;;0.30;0.30;;;3.50;99.90;;;;;;5072421;28;20036;-79
2023/04/04 07:26:02;;;;;;;0.10;0.10;;;3.80;99.90;;;;;;5067380;28;20017;-78
2023/04/04 07:28:28;;;;;;;0.30;0.30;;;4.10;99.90;;;;;;5057099;28;20028;-77
2023/04/04 07:30:53;;;;;;;0.20;0.20;;;4.30;99.90;;;;;;5057715;28;20021;-77
2023/04/04 07:33:19;;;;;;;0.25;0.25;;;4.50;99.90;;;;;;5056963;28;20033;-78
2023/04/04 07:35:44;;;;;;;0.30;0.30;;;4.80;99.90;;;;;;5059154;28;20029;-77
2023/04/04 07:38:09;;;;;;;0.20;0.20;;;4.90;99.90;;;;;;5058973;28;20095;-78
2023/04/04 07:40:35;;;;;;;0.30;0.30;;;5.10;99.90;;;;;;5042335;28;20027;-77
2023/04/04 07:43:01;;;;;;;0.20;0.20;;;5.30;99.90;;;;;;5062564;28;20025;-78
2023/04/04 07:45:26;;;;;;;0.30;0.30;;;5.20;99.90;;;;;;5064352;28;20505;-78
2023/04/04 07:47:52;;;;;;;0.10;0.10;;;4.90;99.90;;;;;;5079850;28;20025;-77
2023/04/04 07:50:19;;;;;;;0.30;0.30;;;4.90;99.90;;;;;;5080932;28;20025;-77
2023/04/04 07:52:54;;;;;;;0.30;0.30;;;4.80;99.90;;;;;;5083448;28;20017;-78
2023/04/04 07:55:20;;;;;;;0.20;0.20;;;4.50;99.90;;;;;;5079646;28;20482;-78
2023/04/04 07:57:46;;;;;;;0.20;0.20;;;4.40;99.90;;;;;;5078462;28;20111;-77
2023/04/04 08:00:12;;;;;;;0.20;0.20;;;4.40;99.90;;;;;;5075302;28;20025;-77
2023/04/04 08:02:41;;;;;;;0.20;0.20;;;4.40;99.90;;;;;;5070959;28;20639;-77
2023/04/04 08:05:07;;;;;;;0.10;0.10;;;4.40;99.90;;;;;;5056342;28;20036;-77
2023/04/04 08:07:33;;;;;;;0.20;0.20;;;4.50;99.90;;;;;;5037325;28;20025;-76
2023/04/04 08:09:58;;;;;;;0.20;0.20;;;4.70;99.90;;;;;;5054226;28;20106;-77
2023/04/04 08:12:27;;;;;;;0.20;0.20;;;4.80;99.90;;;;;;5037287;28;20013;-76
2023/04/04 08:14:52;;;;;;;0.20;0.20;;;5.00;99.90;;;;;;5056006;28;20393;-77
2023/04/04 08:17:19;;;;;;;0.20;0.20;;;5.10;99.90;;;;;;5054704;28;20020;-76
2023/04/04 08:19:45;;;;;;;0.25;0.25;;;5.20;99.90;;;;;;5054696;28;20018;-77
2023/04/04 08:22:11;;;;;;;0.22;0.22;;;5.40;99.90;;;;;;5037730;28;20375;-76
2023/04/04 08:24:36;;;;;;;0.10;0.10;;;5.40;99.90;;;;;;5037004;28;20017;-77
2023/04/04 08:27:03;;;;;;;0.20;0.20;;;5.50;99.90;;;;;;5054929;28;20025;-77
2023/04/04 08:29:31;;;;;;;0.20;0.20;;;5.60;99.90;;;;;;5037031;28;20021;-77
2023/04/04 08:31:57;;;;;;;0.20;0.20;;;5.80;99.90;;;;;;5036241;28;20032;-77
2023/04/04 08:34:22;;;;;;;0.20;0.20;;;6.00;99.90;;;;;;5054613;28;20028;-75
2023/04/04 08:36:48;;;;;;;0.13;0.13;;;5.90;99.90;;;;;;5054709;28;20025;-77
2023/04/04 08:39:13;;;;;;;0.20;0.20;;;6.00;99.90;;;;;;5036708;28;20064;-77
2023/04/04 08:41:42;;;;;;;0.20;0.20;;;6.20;99.90;;;;;;5054565;28;20056;-76
2023/04/04 08:44:10;;;;;;;0.30;0.30;;;6.40;99.90;;;;;;5037159;28;20021;-77
2023/04/04 08:46:37;;;;;;;0.20;0.20;;;6.60;99.90;;;;;;5036262;28;20056;-77
2023/04/04 08:49:03;;;;;;;0.20;0.20;;;6.90;99.90;;;;;;5054880;28;20028;-76
2023/04/04 08:51:30;;;;;;;0.20;0.20;;;6.80;99.90;;;;;;5037218;28;20120;-77
2023/04/04 08:53:57;;;;;;;0.30;0.30;;;7.10;99.90;;;;;;5036187;28;20040;-77
2023/04/04 08:56:23;;;;;;;0.17;0.17;;;7.30;99.90;;;;;;5055330;28;20063;-77
2023/04/04 08:58:48;;;;;;;0.20;0.20;;;7.50;99.90;;;;;;5041736;28;20021;-77
2023/04/04 09:01:15;;;;;;;0.20;0.20;;;7.80;99.90;;;;;;5043561;28;20044;-78
2023/04/04 09:03:42;;;;;;;0.20;0.20;;;7.90;99.90;;;;;;5061113;28;20028;-78
2023/04/04 09:06:09;;;;;;;0.20;0.20;;;8.00;99.90;;;;;;5044021;28;20025;-78
2023/04/04 09:08:35;;;;;;;0.20;0.20;;;8.20;99.90;;;;;;5068766;28;20025;-78
2023/04/04 09:11:03;;;;;;;0.20;0.20;;;8.40;99.90;;;;;;5067681;28;20017;-78
2023/04/04 09:13:30;;;;;;;0.25;0.25;;;8.50;99.90;;;;;;5068569;28;20063;-78
2023/04/04 09:15:57;;;;;;;0.20;0.20;;;8.20;99.90;;;;;;5067977;28;20405;-78
2023/04/04 09:18:23;;;;;;;0.20;0.20;;;8.30;99.90;;;;;;5068429;28;20028;-78
2023/04/04 09:20:49;;;;;;;0.20;0.20;;;8.00;99.90;;;;;;5048145;28;20028;-78
2023/04/04 09:23:19;;;;;;;0.20;0.20;;;7.80;99.90;;;;;;5067791;28;20021;-78
2023/04/04 09:25:49;;;;;;;0.10;0.10;;;8.00;99.90;;;;;;5067414;28;20029;-78
2023/04/04 09:28:15;;;;;;;0.20;0.20;;;8.10;99.90;;;;;;5051566;28;20085;-78
2023/04/04 09:30:43;;;;;;;0.20;0.20;;;8.20;99.90;;;;;;5051568;28;20429;-78
2023/04/04 09:33:10;;;;;;;0.20;0.20;;;8.00;99.90;;;;;;5050737;28;20025;-78
2023/04/04 09:35:43;;;;;;;0.20;0.20;;;8.00;99.90;;;;;;5050279;28;20029;-78
2023/04/04 09:38:09;;;;;;;0.20;0.20;;;7.90;99.90;;;;;;5051366;28;20028;-78
2023/04/04 09:40:40;;;;;;;0.25;0.25;;;8.00;99.90;;;;;;5069185;28;20028;-78
2023/04/04 09:43:07;;;;;;;0.10;0.10;;;8.10;99.90;;;;;;5050966;28;20025;-78
2023/04/04 09:45:35;;;;;;;0.20;0.20;;;8.10;99.90;;;;;;5050650;28;20024;-78
2023/04/04 09:48:01;;;;;;;0.20;0.20;;;8.00;99.90;;;;;;5069230;28;20029;-78
2023/04/04 09:50:32;;;;;;;0.20;0.20;;;8.40;99.90;;;;;;5050793;28;20037;-78
2023/04/04 09:52:59;;;;;;;0.20;0.20;;;8.70;99.90;;;;;;5050334;28;20052;-78
2023/04/04 09:55:32;;;;;;;0.20;0.20;;;8.50;99.90;;;;;;5051383;28;20463;-78
2023/04/04 09:57:57;;;;;;;0.20;0.20;;;8.20;99.90;;;;;;5068378;28;20029;-78
2023/04/04 10:00:29;;;;;;;0.13;0.13;;;8.20;99.90;;;;;;5068610;28;20801;-79
2023/04/04 10:02:57;;;;;;;0.20;0.20;;;8.40;99.90;;;;;;5065532;28;20039;-78
2023/04/04 10:05:23;;;;;;;0.15;0.15;;;8.10;99.90;;;;;;5036411;28;20115;-77
2023/04/04 10:07:48;;;;;;;0.10;0.10;;;8.40;99.90;;;;;;5036529;28;20052;-77
2023/04/04 10:10:19;;;;;;;0.20;0.20;;;8.50;99.90;;;;;;5037668;28;20063;-78
2023/04/04 10:12:46;;;;;;;0.20;0.20;;;8.60;99.90;;;;;;5049652;28;20505;-78
2023/04/04 10:15:14;;;;;;;0.28;0.28;;;9.00;99.90;;;;;;5068846;28;20044;-79
2023/04/04 10:17:40;;;;;;;0.30;0.30;;;9.30;99.90;;;;;;5050488;28;20088;-79
2023/04/04 10:20:10;;;;;;;0.20;0.20;;;9.50;99.90;;;;;;5051639;28;20024;-78
2023/04/04 10:22:37;;;;;;;0.15;0.15;;;9.50;99.90;;;;;;5052356;28;20049;-78
2023/04/04 10:25:04;;;;;;;0.20;0.20;;;9.20;99.90;;;;;;5052313;28;20371;-78
2023/04/04 10:27:31;;;;;;;0.20;0.20;;;8.90;99.90;;;;;;5049133;28;20028;-78
2023/04/04 10:29:56;;;;;;;0.20;0.20;;;8.80;99.90;;;;;;5043215;28;20407;-79
2023/04/04 10:32:32;;;;;;;0.20;0.20;;;8.70;99.90;;;;;;5073882;28;20017;-78
2023/04/04 10:35:10;;;;;;;0.20;0.20;;;8.70;99.90;;;;;;5056903;28;20025;-78
2023/04/04 10:37:56;;;;;;;0.15;0.15;;;8.80;99.90;;;;;;5055036;28;20025;-78
2023/04/04 10:40:26;;;;;;;0.20;0.20;;;8.70;99.90;;;;;;5055747;28;20047;-78
2023/04/04 10:42:53;;;;;;;0.20;0.20;;;8.80;99.90;;;;;;5072842;28;20029;-79
2023/04/04 10:45:20;;;;;;;0.20;0.20;;;8.60;99.90;;;;;;5056946;28;20036;-79
2023/04/04 10:47:46;;;;;;;0.17;0.17;;;8.80;99.90;;;;;;5074383;28;20077;-78
2023/04/04 10:50:12;;;;;;;0.25;0.25;;;9.30;99.90;;;;;;5070791;28;20504;-78
2023/04/04 10:52:43;;;;;;;0.10;0.10;;;9.80;99.90;;;;;;5063336;28;20398;-78
2023/04/04 10:55:11;;;;;;;0.20;0.20;;;9.70;99.90;;;;;;5050653;28;20025;-79
2023/04/04 10:57:42;;;;;;;0.20;0.20;;;9.80;99.90;;;;;;5070970;28;20029;-80
2023/04/04 11:00:13;;;;;;;0.15;0.15;;;10.00;99.90;;;;;;5071382;28;20025;-79
2023/04/04 11:02:51;;;;;;;0.20;0.20;;;10.60;99.90;;;;;;5050778;28;20037;-78
2023/04/04 11:05:19;;;;;;;0.10;0.10;;;10.90;99.90;;;;;;5066321;28;20056;-79
2023/04/04 11:07:46;;;;;;;0.20;0.20;;;10.60;99.90;;;;;;5050420;28;20375;-79
2023/04/04 11:10:14;;;;;;;0.10;0.10;;;11.00;99.90;;;;;;5054768;28;20017;-78
2023/04/04 11:12:44;;;;;;;0.17;0.17;;;11.50;99.90;;;;;;5070981;28;20099;-79
2023/04/04 11:15:11;;;;;;;0.13;0.13;;;11.70;99.90;;;;;;5056368;28;20009;-79
2023/04/04 11:17:47;;;;;;;0.10;0.10;;;11.40;99.90;;;;;;5054827;28;20049;-78
2023/04/04 11:20:20;;;;;;;0.20;0.20;;;10.70;99.90;;;;;;5071648;28;20047;-78
2023/04/04 11:22:49;;;;;;;0.20;0.20;;;10.40;99.90;;;;;;5041451;28;20049;-77
2023/04/04 11:25:23;;;;;;;0.13;0.13;;;10.40;99.90;;;;;;5053197;28;20025;-78
2023/04/04 11:27:52;;;;;;;0.17;0.17;;;10.60;99.90;;;;;;5071017;28;20096;-78
2023/04/04 11:30:19;;;;;;;0.20;0.20;;;10.70;99.90;;;;;;5049297;28;20032;-79
2023/04/04 11:32:47;;;;;;;0.10;0.10;;;10.70;99.90;;;;;;5047501;28;20029;-79
2023/04/04 11:35:14;;;;;;;0.10;0.10;;;11.10;99.90;;;;;;5077184;28;20031;-78
2023/04/04 11:37:58;;;;;;;0.20;0.20;;;10.90;99.90;;;;;;5079491;28;20047;-78
2023/04/04 11:40:33;;;;;;;;;;;10.90;99.90;;;;;;5056275;28;20077;-77
2023/04/04 11:43:02;;;;;;;0.17;0.17;;;11.00;99.90;;;;;;5074061;28;19905;-78
2023/04/04 11:45:29;;;;;;;0.10;0.10;;;11.20;99.90;;;;;;5071250;28;20021;-77
2023/04/04 11:47:57;;;;;;;0.20;0.20;;;11.20;97.10;;;;;;5052398;28;20383;-78
2023/04/04 11:50:22;;;;;;;0.20;0.20;;;11.20;94.50;;;;;;5066698;28;20047;-78
2023/04/04 11:52:50;;;;;;;0.13;0.13;;;11.60;99.30;;;;;;5069022;28;20017;-77
2023/04/04 11:55:21;;;;;;;0.20;0.20;;;12.00;98.60;;;;;;5063405;28;20017;-78
2023/04/04 11:57:50;;;;;;;0.20;0.20;;;11.70;97.00;;;;;;5063528;28;20092;-77
2023/04/04 12:00:33;;;;;;;0.17;0.17;;;11.60;96.20;;;;;;5066699;28;20085;-78
2023/04/04 12:02:59;;;;;;;0.20;0.20;;;11.00;95.00;;;;;;5090546;22;20037;-78
2023/04/04 12:05:25;;;;;;;0.20;0.20;;;11.20;98.20;;;;;;5039593;28;20037;-78
2023/04/04 12:07:51;;;;;;;0.20;0.20;;;11.60;99.10;;;;;;5040629;28;20018;-77
2023/04/04 12:10:17;;;;;;;0.20;0.20;;;11.90;97.30;;;;;;5057420;28;20028;-78
2023/04/04 12:12:48;;;;;;;0.20;0.20;;;12.10;95.50;;;;;;5058264;28;20021;-78
2023/04/04 12:15:14;;;;;;;0.17;0.17;;;12.30;97.20;;;;;;5052150;28;20076;-78
2023/04/04 12:17:42;;;;;;;0.20;0.20;;;13.00;99.00;;;;;;5038030;28;20025;-77
2023/04/04 12:20:09;;;;;;;0.20;0.20;;;13.50;98.00;;;;;;5038011;28;20053;-78
2023/04/04 12:22:36;;;;;;;0.10;0.10;;;13.80;96.00;;;;;;5039944;28;20479;-78
2023/04/04 12:25:04;;;;;;;0.20;0.20;;;13.90;93.40;;;;;;5038610;28;20029;-78
2023/04/04 12:27:30;;;;;;;0.20;0.20;;;13.90;91.70;;;;;;5037798;28;20522;-78
2023/04/04 12:29:56;;;;;;;0.20;0.20;;;13.70;90.10;;;;;;5055189;28;20025;-79
2023/04/04 12:32:22;;;;;;;0.20;0.20;;;13.30;88.10;;;;;;5057313;28;20508;-76
2023/04/04 12:34:48;;;;;;;0.20;0.20;;;13.00;87.90;;;;;;5058905;28;20033;-78
2023/04/04 12:37:17;;;;;;;0.20;0.20;;;13.00;90.40;;;;;;5057126;28;20025;-78
2023/04/04 12:39:48;;;;;;;0.20;0.20;;;13.20;90.40;;;;;;5059543;28;20035;-78
2023/04/04 12:42:21;;;;;;;0.10;0.10;;;12.60;87.00;;;;;;5063138;28;20047;-78
2023/04/04 12:44:53;;;;;;;0.10;0.10;;;12.50;88.50;;;;;;5062930;28;20047;-78
2023/04/04 12:47:21;;;;;;;0.20;0.20;;;12.60;91.00;;;;;;5061827;28;20033;-78
2023/04/04 12:49:50;;;;;;;0.10;0.10;;;12.70;84.50;;;;;;5062307;28;20077;-79
2023/04/04 12:52:19;;;;;;;0.20;0.20;;;12.70;86.20;;;;;;5063066;28;20043;-78
2023/04/04 12:54:51;;;;;;;0.13;0.13;;;12.60;81.40;;;;;;5061546;28;20025;-78